createdAt,value
2023-10-09T00:02:45.424Z,99960.52
2023-10-09T00:05:48.411Z,99944.41
2023-10-09T00:08:52.583Z,99946.18
2023-10-09T00:11:58.490Z,99942.25
2023-10-09T00:15:11.874Z,99939.53
2023-10-09T00:18:15.779Z,99937.22
2023-10-09T00:21:21.704Z,99925.27
2023-10-09T00:24:25.361Z,99915.41
2023-10-09T00:27:32.767Z,99911.02
2023-10-09T00:30:36.897Z,99915.91
2023-10-09T00:33:39.899Z,99914.93
2023-10-09T00:36:51.794Z,99900.73
2023-10-09T00:39:58.293Z,99887.65
2023-10-09T00:43:07.537Z,99885.59
2023-10-09T00:46:13.674Z,99879.79
2023-10-09T00:49:17.212Z,99876.14
2023-10-09T00:52:28.692Z,99872.80
2023-10-09T00:55:44.681Z,99874.64
2023-10-09T00:58:56.562Z,99879.20
2023-10-09T01:02:06.406Z,99871.64
2023-10-09T01:05:20.333Z,99866.45
2023-10-09T01:08:31.826Z,99861.80
2023-10-09T01:11:35.763Z,99867.18
2023-10-09T01:14:39.063Z,99869.94
2023-10-09T01:17:46.833Z,99862.41
2023-10-09T01:20:50.492Z,99861.05
2023-10-09T01:24:03.997Z,99854.60
2023-10-09T01:27:16.976Z,99848.55
2023-10-09T01:30:21.410Z,99848.23
2023-10-09T01:33:28.893Z,99854.09
2023-10-09T01:36:35.390Z,99851.72
2023-10-09T01:39:43.564Z,99848.67
2023-10-09T01:42:47.233Z,99850.42
2023-10-09T01:45:53.297Z,99842.40
2023-10-09T01:48:56.221Z,99843.69
2023-10-09T01:52:09.173Z,99839.16
2023-10-09T01:55:29.038Z,99840.17
2023-10-09T01:58:33.612Z,99840.77
2023-10-09T02:01:42.210Z,99838.46
2023-10-09T02:04:46.303Z,99829.55
2023-10-09T02:07:54.818Z,99824.84
2023-10-09T02:10:57.815Z,99823.64
2023-10-09T02:14:02.121Z,99814.39
2023-10-09T02:17:10.910Z,99814.08
2023-10-09T02:20:29.769Z,99820.14
2023-10-09T02:23:40.623Z,99820.52
2023-10-09T02:26:52.279Z,99818.90
2023-10-09T02:29:57.722Z,99819.59
2023-10-09T02:33:08.239Z,99822.36
2023-10-09T02:36:14.414Z,99821.14
2023-10-09T02:39:27.582Z,99821.02
2023-10-09T02:42:30.759Z,99822.52
2023-10-09T02:45:36.240Z,99818.43
2023-10-09T02:48:43.836Z,99814.71
2023-10-09T02:51:54.334Z,99807.14
2023-10-09T02:55:00.911Z,99805.63
2023-10-09T02:58:09.012Z,99800.98
2023-10-09T03:01:15.812Z,99786.80
2023-10-09T03:04:20.719Z,99775.88
2023-10-09T03:07:24.747Z,99778.54
2023-10-09T03:10:27.813Z,99778.09
2023-10-09T03:13:34.310Z,99783.17
2023-10-09T03:16:37.830Z,99786.45
2023-10-09T03:19:44.972Z,99788.10
2023-10-09T03:22:49.373Z,99791.86
2023-10-09T03:25:52.247Z,99790.33
2023-10-09T03:28:55.586Z,99788.08
2023-10-09T03:31:58.667Z,99781.64
2023-10-09T03:35:04.272Z,99770.55
2023-10-09T03:38:18.407Z,99761.05
2023-10-09T03:41:21.781Z,99753.12
2023-10-09T03:44:24.736Z,99750.17
2023-10-09T03:47:28.876Z,99748.34
2023-10-09T03:50:37.087Z,99746.05
2023-10-09T03:53:40.814Z,99741.57
2023-10-09T03:56:43.863Z,99740.40
2023-10-09T03:59:48.069Z,99734.34
2023-10-09T04:02:51.967Z,99732.96
2023-10-09T04:05:55.023Z,99736.04
2023-10-09T04:09:28.933Z,99729.08
2023-10-09T04:12:32.432Z,99729.68
2023-10-09T04:15:36.991Z,99729.88
2023-10-09T04:18:41.206Z,99729.64
2023-10-09T04:21:44.300Z,99721.39
2023-10-09T04:24:49.618Z,99709.23
2023-10-09T04:28:18.790Z,99704.38
2023-10-09T04:31:23.474Z,99692.52
2023-10-09T04:34:35.862Z,99678.95
2023-10-09T04:37:39.034Z,99673.23
2023-10-09T04:40:41.890Z,99659.00
2023-10-09T04:43:45.874Z,99650.88
2023-10-09T04:47:20.055Z,99643.87
2023-10-09T04:50:31.903Z,99642.23
2023-10-09T04:53:45.269Z,99635.36
2023-10-09T04:56:54.394Z,99620.92
2023-10-09T04:59:59.760Z,99613.11
2023-10-09T05:03:14.366Z,99606.23
2023-10-09T05:06:36.337Z,99597.73
2023-10-09T05:09:57.093Z,99599.27
2023-10-09T05:13:00.127Z,99596.52
2023-10-09T05:16:04.180Z,99596.58
2023-10-09T05:19:08.095Z,99595.65
2023-10-09T05:22:30.381Z,99592.93
2023-10-09T05:25:52.040Z,99596.58
2023-10-09T05:28:59.531Z,99605.77
2023-10-09T05:32:16.844Z,99606.05
2023-10-09T05:35:31.107Z,99609.56
2023-10-09T05:38:37.209Z,99612.16
2023-10-09T05:42:01.101Z,99605.88
2023-10-09T05:45:18.238Z,99602.70
2023-10-09T05:48:21.527Z,99599.58
2023-10-09T05:51:43.189Z,99598.04
2023-10-09T05:55:04.756Z,99597.75
2023-10-09T05:58:10.341Z,99594.57
2023-10-09T06:01:31.673Z,99588.20
2023-10-09T06:04:56.016Z,99582.48
2023-10-09T06:08:08.614Z,99583.37
2023-10-09T06:11:48.885Z,99584.98
2023-10-09T06:14:58.999Z,99586.45
2023-10-09T06:18:22.200Z,99578.45
2023-10-09T06:21:41.839Z,99573.07
2023-10-09T06:24:53.930Z,99575.54
2023-10-09T06:27:59.815Z,99575.48
2023-10-09T06:31:22.933Z,99562.57
2023-10-09T06:34:36.453Z,99568.86
2023-10-09T06:37:59.568Z,99568.28
2023-10-09T06:41:05.400Z,99568.34
2023-10-09T06:44:18.951Z,99566.61
2023-10-09T06:47:25.333Z,99569.84
2023-10-09T06:50:48.317Z,99569.44
2023-10-09T06:53:55.208Z,99566.05
2023-10-09T06:57:14.329Z,99553.03
2023-10-09T07:00:36.211Z,99548.10
2023-10-09T07:03:53.519Z,99545.88
2023-10-09T07:06:58.137Z,99546.08
2023-10-09T07:10:27.246Z,99542.83
2023-10-09T07:13:30.881Z,99541.15
2023-10-09T07:16:40.661Z,99547.31
2023-10-09T07:19:44.788Z,99541.05
2023-10-09T07:23:10.884Z,99538.03
2023-10-09T07:26:19.928Z,99538.80
2023-10-09T07:29:23.201Z,99540.85
2023-10-09T07:32:28.758Z,99538.08
2023-10-09T07:35:44.448Z,99551.02
2023-10-09T07:38:56.404Z,99555.75
2023-10-09T07:42:16.651Z,99553.05
2023-10-09T07:45:19.732Z,99555.33
2023-10-09T07:48:27.051Z,99552.04
2023-10-09T07:51:33.064Z,99549.11
2023-10-09T07:54:51.010Z,99547.86
2023-10-09T07:57:54.777Z,99551.59
2023-10-09T08:01:08.138Z,99546.04
2023-10-09T08:04:15.422Z,99542.28
2023-10-09T08:08:05.448Z,99545.45
2023-10-09T08:11:02.660Z,99543.27
2023-10-09T08:14:08.820Z,99553.37
2023-10-09T08:17:31.917Z,99552.29
2023-10-09T08:20:57.517Z,99551.84
2023-10-09T08:24:06.179Z,99555.83
2023-10-09T08:27:49.376Z,99555.94
2023-10-09T08:31:04.658Z,99555.51
2023-10-09T08:37:16.765Z,99552.69
2023-10-09T08:40:21.067Z,99541.30
2023-10-09T08:43:24.093Z,99543.81
2023-10-09T08:46:28.977Z,99545.61
2023-10-09T08:49:36.656Z,99546.55
2023-10-09T08:52:40.772Z,99545.36
2023-10-09T08:55:45.109Z,99549.52
2023-10-09T08:58:48.274Z,99555.42
2023-10-09T09:01:53.599Z,99559.48
2023-10-09T09:04:56.779Z,99552.91
2023-10-09T09:08:00.927Z,99553.23
2023-10-09T09:11:16.008Z,99547.46
2023-10-09T09:14:23.271Z,99540.02
2023-10-09T09:17:34.432Z,99532.05
2023-10-09T09:20:47.175Z,99529.82
2023-10-09T09:23:58.934Z,99522.24
2023-10-09T09:27:32.688Z,99522.51
2023-10-09T09:30:36.671Z,99516.13
2023-10-09T09:33:43.996Z,99518.74
2023-10-09T09:37:00.027Z,99503.67
2023-10-09T09:40:16.333Z,99495.04
2023-10-09T09:43:23.455Z,99488.32
2023-10-09T09:46:37.121Z,99489.19
2023-10-09T09:49:43.853Z,99484.70
2023-10-09T09:52:48.139Z,99481.08
2023-10-09T09:55:57.342Z,99481.22
2023-10-09T09:59:07.783Z,99492.83
2023-10-09T10:02:22.085Z,99486.86
2023-10-09T10:05:30.900Z,99494.83
2023-10-09T10:08:34.482Z,99490.06
2023-10-09T10:11:47.292Z,99479.87
2023-10-09T10:15:00.264Z,99473.38
2023-10-09T10:18:06.454Z,99477.33
2023-10-09T10:21:17.565Z,99477.36
2023-10-09T10:24:29.949Z,99480.29
2023-10-09T10:27:46.178Z,99475.18
2023-10-09T10:30:52.252Z,99469.95
2023-10-09T10:33:56.246Z,99462.00
2023-10-09T10:36:59.614Z,99452.54
2023-10-09T10:40:04.057Z,99443.36
2023-10-09T10:43:33.005Z,99439.06
2023-10-09T10:46:45.593Z,99432.23
2023-10-09T10:49:59.822Z,99425.61
2023-10-09T10:53:16.935Z,99422.19
2023-10-09T10:56:20.213Z,99419.81
2023-10-09T10:59:29.556Z,99421.40
2023-10-09T11:02:34.775Z,99423.66
2023-10-09T11:05:41.035Z,99429.52
2023-10-09T11:08:56.084Z,99426.23
2023-10-09T11:12:23.629Z,99431.96
2023-10-09T11:15:47.805Z,99440.33
2023-10-09T11:18:51.011Z,99443.66
2023-10-09T11:22:20.361Z,99437.41
2023-10-09T11:25:26.693Z,99431.01
2023-10-09T11:28:49.833Z,99418.20
2023-10-09T11:32:04.914Z,99421.52
2023-10-09T11:35:15.895Z,99418.52
2023-10-09T11:38:25.504Z,99418.79
2023-10-09T11:41:35.308Z,99416.58
2023-10-09T11:44:46.821Z,99413.91
2023-10-09T11:48:01.116Z,99413.77
2023-10-09T11:51:04.332Z,99415.63
2023-10-09T11:54:09.901Z,99410.66
2023-10-09T11:57:12.823Z,99406.11
2023-10-09T12:00:30.081Z,99398.02
2023-10-09T12:03:34.525Z,99396.50
2023-10-09T12:06:38.060Z,99402.63
2023-10-09T12:09:41.382Z,99399.02
2023-10-09T12:12:47.773Z,99399.98
2023-10-09T12:15:53.306Z,99400.65
2023-10-09T12:18:56.350Z,99395.61
2023-10-09T12:22:01.483Z,99384.41
2023-10-09T12:25:10.457Z,99382.26
2023-10-09T12:28:13.812Z,99381.95
2023-10-09T12:31:20.995Z,99380.13
2023-10-09T12:34:27.762Z,99378.89
2023-10-09T12:37:32.640Z,99376.38
2023-10-09T12:40:37.200Z,99372.67
2023-10-09T12:43:40.247Z,99370.27
2023-10-09T12:46:48.831Z,99370.77
2023-10-09T12:49:55.305Z,99374.23
2023-10-09T12:53:08.589Z,99365.90
2023-10-09T12:56:13.363Z,99364.00
2023-10-09T12:59:16.739Z,99360.23
2023-10-09T13:02:30.145Z,99365.58
2023-10-09T13:05:33.673Z,99363.58
2023-10-09T13:08:36.579Z,99365.19
2023-10-09T13:11:41.708Z,99366.31
2023-10-09T13:14:44.877Z,99368.20
2023-10-09T13:17:48.695Z,99367.63
2023-10-09T13:20:51.680Z,99362.77
2023-10-09T13:23:58.822Z,99364.14
2023-10-09T13:27:05.585Z,99361.20
2023-10-09T13:30:10.954Z,99362.19
2023-10-09T13:33:18.395Z,99352.94
2023-10-09T13:36:37.491Z,99343.29
2023-10-09T13:39:53.182Z,99340.02
2023-10-09T13:43:02.906Z,99338.14
2023-10-09T13:46:05.859Z,99334.57
2023-10-09T13:49:13.338Z,99327.07
2023-10-09T13:52:19.511Z,99321.64
2023-10-09T13:55:22.422Z,99312.96
2023-10-09T13:58:25.461Z,99309.13
2023-10-09T14:01:28.606Z,99304.73
2023-10-09T14:04:31.637Z,99300.45
2023-10-09T14:07:36.117Z,99306.53
2023-10-09T14:10:40.220Z,99309.16
2023-10-09T14:13:43.824Z,99307.30
2023-10-09T14:16:47.768Z,99313.48
2023-10-09T14:19:52.601Z,99313.88
2023-10-09T14:22:55.678Z,99308.73
2023-10-09T14:26:03.174Z,99311.73
2023-10-09T14:29:07.992Z,99309.43
2023-10-09T14:32:14.372Z,99299.54
2023-10-09T14:35:17.413Z,99309.33
2023-10-09T14:38:27.972Z,99308.85
2023-10-09T14:41:34.460Z,99310.89
2023-10-09T14:44:39.446Z,99315.41
2023-10-09T14:47:43.416Z,99313.86
2023-10-09T14:50:50.593Z,99318.64
2023-10-09T14:53:58.605Z,99317.33
2023-10-09T14:57:01.822Z,99313.73
2023-10-09T15:00:14.921Z,99318.29
2023-10-09T15:03:21.173Z,99333.92
2023-10-09T15:06:31.550Z,99334.81
2023-10-09T15:09:37.703Z,99333.04
2023-10-09T15:12:43.955Z,99337.84
2023-10-09T15:15:52.663Z,99337.89
2023-10-09T15:18:58.485Z,99325.11
2023-10-09T15:22:11.118Z,99327.64
2023-10-09T15:25:16.162Z,99335.48
2023-10-09T15:28:23.960Z,99336.13
2023-10-09T15:31:28.584Z,99332.57
2023-10-09T15:34:32.723Z,99345.64
2023-10-09T15:37:35.573Z,99347.27
2023-10-09T15:40:40.315Z,99359.79
2023-10-09T15:43:45.417Z,99359.87
2023-10-09T15:46:48.458Z,99367.80
2023-10-09T15:49:53.947Z,99378.36
2023-10-09T15:52:56.974Z,99377.56
2023-10-09T15:56:02.376Z,99374.42
2023-10-09T15:59:06.749Z,99377.67
2023-10-09T16:02:09.742Z,99387.33
2023-10-09T16:05:13.231Z,99386.13
2023-10-09T16:08:16.452Z,99391.15
2023-10-09T16:11:26.478Z,99385.28
2023-10-09T16:14:29.440Z,99379.13
2023-10-09T16:17:33.634Z,99379.30
2023-10-09T16:20:38.547Z,99385.06
2023-10-09T16:23:43.335Z,99390.32
2023-10-09T16:26:52.254Z,99396.00
2023-10-09T16:29:55.807Z,99397.72
2023-10-09T16:32:58.988Z,99389.25
2023-10-09T16:36:02.026Z,99402.58
2023-10-09T16:39:05.379Z,99400.32
2023-10-09T16:42:10.890Z,99399.11
2023-10-09T16:45:17.182Z,99398.55
2023-10-09T16:48:20.247Z,99400.70
2023-10-09T16:51:23.270Z,99404.57
2023-10-09T16:54:27.770Z,99409.41
2023-10-09T16:57:30.839Z,99420.36
2023-10-09T17:00:36.652Z,99429.77
2023-10-09T17:03:43.762Z,99430.05
2023-10-09T17:06:52.489Z,99436.40
2023-10-09T17:09:57.393Z,99438.64
2023-10-09T17:13:01.859Z,99439.46
2023-10-09T17:16:04.806Z,99440.77
2023-10-09T17:19:08.019Z,99431.16
2023-10-09T17:22:13.598Z,99436.23
2023-10-09T17:25:18.002Z,99447.99
2023-10-09T17:28:20.890Z,99449.89
2023-10-09T17:31:28.345Z,99451.52
2023-10-09T17:34:34.994Z,99450.52
2023-10-09T17:37:40.063Z,99450.47
2023-10-09T17:40:52.967Z,99453.84
2023-10-09T17:43:59.141Z,99448.27
2023-10-09T17:47:02.230Z,99443.48
2023-10-09T17:50:07.319Z,99438.85
2023-10-09T17:53:11.383Z,99441.80
2023-10-09T17:56:19.630Z,99447.08
2023-10-09T17:59:23.100Z,99448.43
2023-10-09T18:02:29.208Z,99449.95
2023-10-09T18:05:34.473Z,99450.95
2023-10-09T18:08:37.609Z,99449.19
2023-10-09T18:11:40.913Z,99450.42
2023-10-09T18:14:44.585Z,99451.58
2023-10-09T18:17:47.802Z,99456.47
2023-10-09T18:20:50.717Z,99458.69
2023-10-09T18:23:57.062Z,99457.64
2023-10-09T18:26:59.905Z,99455.67
2023-10-09T18:30:02.871Z,99449.20
2023-10-09T18:33:06.261Z,99462.05
2023-10-09T18:36:10.187Z,99467.16
2023-10-09T18:39:13.945Z,99463.40
2023-10-09T18:42:17.155Z,99459.30
2023-10-09T18:45:19.958Z,99456.08
2023-10-09T18:48:29.030Z,99456.78
2023-10-09T18:51:33.653Z,99456.76
2023-10-09T18:54:37.237Z,99459.20
2023-10-09T18:57:41.322Z,99454.84
2023-10-09T19:00:50.143Z,99455.69
2023-10-09T19:03:54.576Z,99458.98
2023-10-09T19:06:59.198Z,99460.36
2023-10-09T19:10:02.795Z,99461.25
2023-10-09T19:13:11.156Z,99464.20
2023-10-09T19:16:14.150Z,99464.85
2023-10-09T19:19:17.174Z,99472.88
2023-10-09T19:22:21.171Z,99472.75
2023-10-09T19:25:28.589Z,99465.20
2023-10-09T19:28:31.624Z,99469.78
2023-10-09T19:31:34.467Z,99471.94
2023-10-09T19:34:38.129Z,99467.54
2023-10-09T19:37:43.381Z,99471.57
2023-10-09T19:40:53.379Z,99477.44
2023-10-09T19:43:56.398Z,99470.90
2023-10-09T19:46:59.392Z,99472.73
2023-10-09T19:50:04.027Z,99472.87
2023-10-09T19:53:06.873Z,99474.23
2023-10-09T19:56:11.743Z,99474.49
2023-10-09T19:59:15.984Z,99474.59
2023-10-09T20:02:19.175Z,99477.73
2023-10-09T20:05:23.969Z,99476.16
2023-10-09T20:08:28.878Z,99481.15
2023-10-09T20:11:32.485Z,99483.30
2023-10-09T20:14:35.390Z,99486.95
2023-10-09T20:17:38.342Z,99494.67
2023-10-09T20:20:47.587Z,99499.55
2023-10-09T20:23:50.457Z,99498.89
2023-10-09T20:26:53.294Z,99494.42
2023-10-09T20:29:57.451Z,99492.29
2023-10-09T20:33:00.754Z,99500.18
2023-10-09T20:36:13.802Z,99493.67
2023-10-09T20:39:17.702Z,99496.73
2023-10-09T20:42:22.936Z,99499.08
2023-10-09T20:45:26.017Z,99500.92
2023-10-09T20:48:28.824Z,99499.64
2023-10-09T20:51:42.552Z,99501.88
2023-10-09T20:54:53.733Z,99497.21
2023-10-09T20:57:58.439Z,99505.30
2023-10-09T21:01:12.906Z,99507.64
2023-10-09T21:04:15.896Z,99509.41
2023-10-09T21:07:19.175Z,99512.80
2023-10-09T21:10:23.079Z,99519.23
2023-10-09T21:13:27.819Z,99523.11
2023-10-09T21:16:30.679Z,99520.63
2023-10-09T21:19:33.690Z,99517.96
2023-10-09T21:22:38.910Z,99517.65
2023-10-09T21:25:41.814Z,99514.11
2023-10-09T21:28:45.423Z,99502.89
2023-10-09T21:31:48.351Z,99504.27
2023-10-09T21:34:51.340Z,99505.73
2023-10-09T21:38:01.254Z,99507.65
2023-10-09T21:41:18.211Z,99512.44
2023-10-09T21:44:21.729Z,99518.59
2023-10-09T21:47:24.824Z,99516.52
2023-10-09T21:50:29.619Z,99514.38
2023-10-09T21:53:32.483Z,99522.43
2023-10-09T21:56:35.794Z,99520.54
2023-10-09T21:59:38.659Z,99516.08
2023-10-09T22:02:51.048Z,99519.56
2023-10-09T22:05:57.162Z,99518.46
2023-10-09T22:09:00.210Z,99518.52
2023-10-09T22:12:03.152Z,99518.30
2023-10-09T22:15:06.817Z,99523.34
2023-10-09T22:18:12.569Z,99523.81
2023-10-09T22:21:17.314Z,99530.17
2023-10-09T22:24:22.081Z,99527.88
2023-10-09T22:27:25.166Z,99525.45
2023-10-09T22:30:35.028Z,99525.66
2023-10-09T22:33:47.030Z,99527.09
2023-10-09T22:36:55.009Z,99525.56
2023-10-09T22:40:02.230Z,99524.16
2023-10-09T22:43:15.775Z,99527.35
2023-10-09T22:46:20.750Z,99527.63
2023-10-09T22:49:26.264Z,99526.73
2023-10-09T22:52:35.844Z,99529.84
2023-10-09T22:55:45.384Z,99530.49
2023-10-09T22:58:52.507Z,99537.23
2023-10-09T23:02:01.796Z,99534.70
2023-10-09T23:05:05.825Z,99535.08
2023-10-09T23:08:17.787Z,99538.88
2023-10-09T23:11:26.764Z,99546.62
2023-10-09T23:14:29.840Z,99558.28
2023-10-09T23:17:49.415Z,99566.80
2023-10-09T23:21:12.458Z,99568.35
2023-10-09T23:24:27.087Z,99572.84
2023-10-09T23:27:39.462Z,99569.23
2023-10-09T23:30:45.733Z,99570.64
2023-10-09T23:33:58.372Z,99571.47
2023-10-09T23:37:05.172Z,99569.25
2023-10-09T23:40:17.735Z,99571.52
2023-10-09T23:43:29.398Z,99569.16
2023-10-09T23:46:37.331Z,99570.69
2023-10-09T23:49:40.291Z,99569.55
2023-10-09T23:52:45.727Z,99570.56
2023-10-09T23:55:53.006Z,99578.83
2023-10-09T23:58:56.585Z,99582.18
